createdAt,value
2023-02-19T00:01:39.892Z,20.27
2023-02-19T00:03:42.468Z,23.88
2023-02-19T00:05:44.076Z,20.95
2023-02-19T00:07:45.630Z,25.15
2023-02-19T00:09:47.185Z,26.95
2023-02-19T00:11:49.700Z,25.92
2023-02-19T00:13:53.321Z,26.08
2023-02-19T00:15:56.361Z,28.15
2023-02-19T00:17:58.036Z,23.70
2023-02-19T00:19:59.654Z,23.25
2023-02-19T00:22:01.250Z,30.95
2023-02-19T00:24:04.978Z,21.55
2023-02-19T00:26:18.179Z,22.67
2023-02-19T00:28:20.606Z,18.40
2023-02-19T00:30:22.261Z,24.25
2023-02-19T00:32:23.876Z,23.95
2023-02-19T00:34:25.525Z,25.40
2023-02-19T00:36:28.162Z,24.25
2023-02-19T00:38:30.455Z,23.67
2023-02-19T00:40:32.061Z,26.92
2023-02-19T00:42:33.627Z,30.48
2023-02-19T00:44:35.243Z,26.60
2023-02-19T00:46:40.471Z,24.73
2023-02-19T00:48:42.094Z,24.35
2023-02-19T00:50:44.044Z,29.80
2023-02-19T00:52:45.678Z,24.17
2023-02-19T00:54:47.278Z,21.77
2023-02-19T00:56:49.314Z,25.90
2023-02-19T00:58:51.210Z,27.58
2023-02-19T01:00:52.811Z,19.65
2023-02-19T01:02:54.436Z,29.60
2023-02-19T01:04:56.037Z,26.13
2023-02-19T01:06:57.811Z,19.45
2023-02-19T01:08:59.439Z,21.70
2023-02-19T01:11:02.340Z,16.23
2023-02-19T01:13:03.920Z,17.38
2023-02-19T01:15:05.727Z,19.98
2023-02-19T01:17:07.319Z,22.83
2023-02-19T01:19:08.999Z,20.52
2023-02-19T01:21:13.489Z,17.83
2023-02-19T01:23:15.091Z,22.65
2023-02-19T01:25:16.838Z,21.42
2023-02-19T01:27:18.478Z,19.52
2023-02-19T01:29:20.084Z,17.02
2023-02-19T01:31:23.959Z,18.85
2023-02-19T01:33:25.728Z,16.77
2023-02-19T01:35:27.346Z,21.23
2023-02-19T01:37:29.216Z,17.48
2023-02-19T01:39:30.907Z,20.08
2023-02-19T01:41:35.880Z,18.55
2023-02-19T01:43:59.445Z,21.05
2023-02-19T01:46:01.444Z,17.98
2023-02-19T01:48:03.147Z,20.05
2023-02-19T01:50:05.034Z,19.75
2023-02-19T01:52:14.493Z,16.92
2023-02-19T01:54:18.093Z,19.83
2023-02-19T01:56:20.074Z,19.10
2023-02-19T01:58:22.666Z,18.05
2023-02-19T02:00:24.904Z,20.33
2023-02-19T02:02:28.434Z,21.30
2023-02-19T02:04:31.206Z,17.10
2023-02-19T02:06:51.695Z,15.55
2023-02-19T02:09:16.481Z,18.50
2023-02-19T02:11:19.130Z,16.23
2023-02-19T02:13:20.828Z,21.98
2023-02-19T02:15:24.247Z,19.90
2023-02-19T02:17:34.733Z,19.55
2023-02-19T02:20:07.271Z,20.30
2023-02-19T02:22:17.866Z,21.30
2023-02-19T02:24:38.042Z,19.08
2023-02-19T02:26:45.644Z,21.98
2023-02-19T02:28:56.062Z,18.60
2023-02-19T02:31:06.038Z,20.58
2023-02-19T02:33:39.807Z,22.60
2023-02-19T02:35:51.525Z,20.30
2023-02-19T02:37:55.742Z,19.85
2023-02-19T02:39:59.117Z,18.00
2023-02-19T02:42:19.296Z,17.48
2023-02-19T02:44:20.898Z,18.92
2023-02-19T02:46:26.485Z,19.60
2023-02-19T02:48:41.741Z,18.38
2023-02-19T02:50:54.127Z,16.70
2023-02-19T02:53:20.955Z,15.88
2023-02-19T02:55:22.842Z,21.00
2023-02-19T02:57:24.530Z,15.77
2023-02-19T02:59:29.322Z,19.67
2023-02-19T03:01:58.611Z,18.50
2023-02-19T03:04:04.094Z,18.17
2023-02-19T03:06:07.336Z,21.33
2023-02-19T03:08:15.842Z,20.50
2023-02-19T03:10:20.960Z,23.08
2023-02-19T03:12:41.931Z,18.98
2023-02-19T03:15:10.502Z,22.20
2023-02-19T03:17:52.615Z,22.88
2023-02-19T03:19:57.151Z,19.65
2023-02-19T03:22:20.033Z,19.73
2023-02-19T03:24:43.976Z,19.65
2023-02-19T03:26:45.828Z,16.58
2023-02-19T03:29:08.013Z,21.52
2023-02-19T03:31:13.553Z,24.92
2023-02-19T03:33:27.008Z,18.27
2023-02-19T03:35:32.370Z,17.83
2023-02-19T03:37:44.662Z,22.15
2023-02-19T03:39:46.194Z,23.83
2023-02-19T03:42:13.900Z,22.02
2023-02-19T03:44:18.371Z,18.25
2023-02-19T03:46:30.353Z,19.48
2023-02-19T03:48:37.040Z,21.75
2023-02-19T03:50:59.160Z,16.98
2023-02-19T03:53:12.733Z,17.80
2023-02-19T03:55:31.564Z,18.77
2023-02-19T03:57:47.242Z,18.65
2023-02-19T03:59:57.332Z,22.77
2023-02-19T04:02:04.515Z,20.60
2023-02-19T04:04:19.737Z,33.50
2023-02-19T04:06:26.763Z,15.38
2023-02-19T04:08:29.187Z,18.42
2023-02-19T04:10:31.964Z,19.83
2023-02-19T04:12:34.021Z,18.15
2023-02-19T04:15:02.734Z,20.20
2023-02-19T04:17:17.168Z,15.60
2023-02-19T04:19:20.952Z,14.63
2023-02-19T04:21:24.873Z,20.83
2023-02-19T04:25:29.484Z,18.48
2023-02-19T04:27:31.309Z,20.20
2023-02-19T04:29:32.992Z,15.23
2023-02-19T04:31:35.820Z,25.05
2023-02-19T04:33:38.052Z,17.42
2023-02-19T04:35:39.664Z,20.92
2023-02-19T04:37:41.252Z,22.42
2023-02-19T04:39:42.875Z,20.65
2023-02-19T04:41:44.589Z,20.85
2023-02-19T04:43:46.159Z,15.82
2023-02-19T04:45:47.785Z,24.33
2023-02-19T04:48:08.705Z,24.33
2023-02-19T04:50:10.357Z,13.57
2023-02-19T04:52:12.165Z,20.20
2023-02-19T04:54:13.767Z,17.77
2023-02-19T04:56:16.766Z,15.07
2023-02-19T04:58:18.393Z,17.50
2023-02-19T05:00:20.156Z,17.88
2023-02-19T05:02:21.730Z,16.25
2023-02-19T05:04:24.038Z,12.88
2023-02-19T05:06:25.719Z,15.15
2023-02-19T05:08:27.278Z,15.48
2023-02-19T05:10:28.915Z,9.93
2023-02-19T05:12:31.202Z,10.02
2023-02-19T05:14:32.872Z,9.43
2023-02-19T05:16:34.505Z,8.70
2023-02-19T05:18:36.290Z,10.02
2023-02-19T05:20:37.872Z,10.02
2023-02-19T05:22:39.464Z,10.75
2023-02-19T05:24:41.034Z,8.80
2023-02-19T05:26:45.130Z,9.95
2023-02-19T05:28:48.779Z,9.93
2023-02-19T05:30:51.940Z,9.43
2023-02-19T05:32:53.501Z,9.60
2023-02-19T05:34:55.159Z,6.82
2023-02-19T05:36:56.766Z,10.13
2023-02-19T05:38:58.729Z,8.85
2023-02-19T05:41:26.935Z,5.90
2023-02-19T05:43:28.488Z,9.65
2023-02-19T05:45:30.448Z,8.20
2023-02-19T05:47:32.076Z,7.32
2023-02-19T05:49:33.668Z,7.75
2023-02-19T05:51:35.263Z,8.68
2023-02-19T05:53:37.486Z,8.30
2023-02-19T05:55:39.064Z,9.65
2023-02-19T05:57:45.307Z,10.27
2023-02-19T05:59:46.875Z,9.23
2023-02-19T06:01:49.944Z,9.07
2023-02-19T06:03:51.653Z,12.40
2023-02-19T06:05:53.260Z,7.25
2023-02-19T06:07:54.862Z,10.15
2023-02-19T06:09:56.474Z,7.70
2023-02-19T06:11:58.201Z,6.43
2023-02-19T06:13:59.836Z,9.52
2023-02-19T06:16:04.790Z,10.88
2023-02-19T06:18:06.321Z,6.45
2023-02-19T06:20:08.333Z,8.77
2023-02-19T06:22:10.240Z,11.20
2023-02-19T06:24:11.850Z,8.77
2023-02-19T06:26:16.189Z,8.32
2023-02-19T06:28:17.800Z,7.35
2023-02-19T06:30:19.570Z,7.40
2023-02-19T06:32:21.335Z,10.93
2023-02-19T06:34:23.062Z,10.23
2023-02-19T06:36:25.060Z,9.40
2023-02-19T06:38:27.188Z,10.90
2023-02-19T06:40:29.057Z,12.18
2023-02-19T06:42:33.758Z,12.45
2023-02-19T06:44:35.444Z,8.07
2023-02-19T06:46:37.186Z,13.60
2023-02-19T06:48:39.762Z,10.82
2023-02-19T06:50:41.390Z,9.60
2023-02-19T06:52:42.943Z,8.93
2023-02-19T06:54:44.550Z,12.30
2023-02-19T06:56:47.140Z,15.40
2023-02-19T06:58:48.907Z,9.68
2023-02-19T07:00:50.497Z,10.90
2023-02-19T07:02:56.592Z,9.90
2023-02-19T07:04:58.247Z,16.08
2023-02-19T07:07:00.374Z,13.52
2023-02-19T07:09:04.005Z,16.50
2023-02-19T07:13:07.176Z,17.40
2023-02-19T07:15:09.215Z,14.15
2023-02-19T07:17:10.882Z,14.20
2023-02-19T07:19:12.807Z,15.55
2023-02-19T07:21:15.816Z,15.63
2023-02-19T07:23:17.431Z,15.07
2023-02-19T07:25:19.052Z,15.73
2023-02-19T07:27:20.667Z,17.10
2023-02-19T07:29:22.310Z,20.15
2023-02-19T07:31:24.748Z,14.95
2023-02-19T07:33:26.608Z,11.93
2023-02-19T07:35:28.298Z,11.65
2023-02-19T07:37:30.015Z,10.52
2023-02-19T07:39:31.699Z,11.43
2023-02-19T07:41:33.351Z,14.23
2023-02-19T07:43:36.642Z,15.00
2023-02-19T07:45:38.323Z,17.55
2023-02-19T07:47:40.022Z,9.68
2023-02-19T07:49:41.643Z,13.48
2023-02-19T07:51:44.353Z,9.40
2023-02-19T07:53:46.785Z,10.15
2023-02-19T07:55:48.530Z,11.10
2023-02-19T07:57:50.163Z,11.52
2023-02-19T07:59:52.073Z,11.05
2023-02-19T08:02:12.186Z,12.40
2023-02-19T08:04:14.534Z,12.25
2023-02-19T08:06:16.115Z,8.88
2023-02-19T08:08:17.884Z,11.05
2023-02-19T08:10:38.382Z,11.30
2023-02-19T08:12:58.772Z,13.02
2023-02-19T08:15:00.360Z,9.95
2023-02-19T08:17:02.140Z,9.80
2023-02-19T08:19:04.093Z,11.13
2023-02-19T08:21:06.018Z,9.93
2023-02-19T08:23:07.782Z,7.82
2023-02-19T08:25:09.613Z,9.43
2023-02-19T08:27:11.394Z,7.93
2023-02-19T08:29:13.010Z,7.10
2023-02-19T08:31:15.211Z,9.57
2023-02-19T08:33:19.191Z,6.15
2023-02-19T08:37:22.229Z,6.15
2023-02-19T08:39:23.917Z,9.02
2023-02-19T08:41:25.612Z,8.45
2023-02-19T08:43:27.341Z,6.03
2023-02-19T08:45:28.955Z,6.82
2023-02-19T08:47:30.623Z,6.75
2023-02-19T08:49:32.270Z,9.23
2023-02-19T08:51:33.876Z,8.32
2023-02-19T08:53:36.916Z,8.77
2023-02-19T08:55:39.066Z,7.75
2023-02-19T08:57:40.738Z,7.82
2023-02-19T08:59:42.310Z,5.72
2023-02-19T09:01:44.054Z,8.77
2023-02-19T09:03:45.826Z,9.10
2023-02-19T09:05:48.092Z,5.43
2023-02-19T09:07:49.953Z,6.43
2023-02-19T09:09:51.652Z,7.53
2023-02-19T09:11:53.289Z,9.68
2023-02-19T09:13:56.552Z,6.93
2023-02-19T09:15:58.274Z,6.80
2023-02-19T09:18:00.157Z,6.45
2023-02-19T09:20:02.125Z,7.63
2023-02-19T09:22:05.103Z,9.13
2023-02-19T09:24:09.587Z,7.85
2023-02-19T09:26:11.637Z,7.25
2023-02-19T09:28:13.389Z,6.47
2023-02-19T09:30:15.359Z,8.65
2023-02-19T09:32:19.073Z,6.43
2023-02-19T09:34:20.957Z,7.13
2023-02-19T09:36:22.712Z,7.13
2023-02-19T09:38:24.379Z,4.97
2023-02-19T09:40:26.033Z,10.10
2023-02-19T09:42:30.545Z,12.00
2023-02-19T09:44:35.101Z,5.90
2023-02-19T09:46:46.418Z,6.57
2023-02-19T09:48:48.445Z,7.57
2023-02-19T09:50:50.090Z,6.13
2023-02-19T09:52:53.857Z,6.50
2023-02-19T09:57:01.667Z,9.55
2023-02-19T09:59:03.493Z,9.23
2023-02-19T10:01:07.869Z,6.05
2023-02-19T10:03:17.622Z,8.02
2023-02-19T10:05:19.462Z,6.63
2023-02-19T10:07:26.927Z,7.20
2023-02-19T10:09:30.147Z,6.72
2023-02-19T10:11:31.766Z,6.43
2023-02-19T10:13:36.621Z,6.30
2023-02-19T10:15:50.520Z,6.80
2023-02-19T10:17:52.401Z,7.80
2023-02-19T10:19:54.115Z,8.90
2023-02-19T10:21:56.866Z,7.80
2023-02-19T10:24:01.517Z,13.45
2023-02-19T10:26:03.143Z,14.23
2023-02-19T10:28:04.987Z,10.23
2023-02-19T10:30:07.872Z,8.30
2023-02-19T10:32:20.963Z,7.67
2023-02-19T10:34:23.113Z,7.65
2023-02-19T10:36:34.276Z,6.68
2023-02-19T10:38:39.361Z,15.43
2023-02-19T10:40:44.504Z,13.77
2023-02-19T10:42:51.272Z,14.20
2023-02-19T10:45:01.757Z,9.85
2023-02-19T10:47:03.564Z,11.57
2023-02-19T10:49:07.143Z,7.85
2023-02-19T10:51:11.639Z,8.88
2023-02-19T10:53:25.497Z,12.73
2023-02-19T10:55:30.550Z,15.38
2023-02-19T10:57:34.171Z,8.55
2023-02-19T10:59:35.809Z,14.98
2023-02-19T11:01:39.583Z,12.45
2023-02-19T11:06:06.653Z,11.95
2023-02-19T11:08:21.813Z,12.38
2023-02-19T11:10:27.948Z,6.72
2023-02-19T11:12:33.509Z,5.95
2023-02-19T11:14:35.140Z,4.30
2023-02-19T11:16:50.174Z,7.38
2023-02-19T11:18:57.317Z,4.80
2023-02-19T11:21:04.449Z,11.38
2023-02-19T11:23:24.580Z,12.07
2023-02-19T11:25:26.863Z,8.68
2023-02-19T11:27:28.686Z,4.95
2023-02-19T11:29:35.016Z,4.63
2023-02-19T11:31:36.757Z,9.05
2023-02-19T11:33:54.475Z,5.07
2023-02-19T11:36:20.849Z,4.38
2023-02-19T11:38:22.588Z,5.30
2023-02-19T11:41:01.645Z,9.30
2023-02-19T11:43:08.113Z,5.65
2023-02-19T11:45:24.651Z,4.57
2023-02-19T11:47:44.899Z,4.45
2023-02-19T11:49:55.668Z,4.28
2023-02-19T11:52:45.231Z,3.97
2023-02-19T11:54:52.006Z,6.03
2023-02-19T11:57:02.662Z,4.85
2023-02-19T11:59:05.446Z,2.92
2023-02-19T12:01:38.418Z,4.20
2023-02-19T12:03:48.969Z,4.43
2023-02-19T12:05:58.380Z,4.30
2023-02-19T12:08:18.376Z,4.82
2023-02-19T12:10:25.997Z,4.75
2023-02-19T12:12:37.913Z,4.00
2023-02-19T12:15:11.717Z,5.38
2023-02-19T12:17:32.138Z,6.05
2023-02-19T12:19:51.915Z,4.85
2023-02-19T12:22:05.688Z,5.97
2023-02-19T12:24:32.208Z,3.45
2023-02-19T12:26:52.346Z,4.82
2023-02-19T12:29:31.466Z,4.47
2023-02-19T12:32:00.455Z,7.72
2023-02-19T12:34:10.867Z,6.10
2023-02-19T12:36:30.878Z,4.22
2023-02-19T12:38:39.506Z,5.00
2023-02-19T12:40:56.076Z,3.85
2023-02-19T12:43:09.091Z,4.55
2023-02-19T12:45:16.636Z,4.53
2023-02-19T12:47:28.651Z,5.45
2023-02-19T12:49:39.120Z,5.50
2023-02-19T12:51:55.275Z,4.97
2023-02-19T12:54:06.384Z,4.90
2023-02-19T12:56:15.125Z,6.30
2023-02-19T12:58:32.227Z,7.65
2023-02-19T13:00:39.592Z,4.28
2023-02-19T13:02:50.517Z,5.55
2023-02-19T13:05:14.396Z,11.32
2023-02-19T13:07:38.900Z,7.40
2023-02-19T13:12:18.323Z,5.80
2023-02-19T13:14:31.194Z,8.05
2023-02-19T13:16:35.086Z,6.95
2023-02-19T13:19:03.031Z,5.30
2023-02-19T13:21:06.363Z,6.88
2023-02-19T13:23:35.323Z,7.78
2023-02-19T13:26:14.720Z,4.45
2023-02-19T13:28:36.651Z,4.78
2023-02-19T13:30:53.758Z,5.30
2023-02-19T13:33:32.742Z,6.00
2023-02-19T13:36:06.295Z,5.25
2023-02-19T13:38:10.251Z,7.13
2023-02-19T13:40:35.524Z,6.25
2023-02-19T13:42:37.213Z,7.13
2023-02-19T13:44:41.148Z,8.57
2023-02-19T13:46:45.128Z,9.18
2023-02-19T13:48:46.789Z,10.75
2023-02-19T13:50:48.388Z,6.25
2023-02-19T13:52:54.648Z,6.13
2023-02-19T13:55:33.424Z,5.70
2023-02-19T13:57:35.303Z,8.32
2023-02-19T13:59:39.296Z,6.50
2023-02-19T14:01:49.671Z,5.65
2023-02-19T14:04:08.088Z,4.85
2023-02-19T14:06:10.150Z,11.10
2023-02-19T14:08:11.804Z,11.15
2023-02-19T14:10:34.507Z,11.02
2023-02-19T14:12:37.388Z,8.70
2023-02-19T14:14:53.433Z,11.27
2023-02-19T14:17:04.475Z,14.05
2023-02-19T14:19:18.782Z,9.75
2023-02-19T14:21:28.480Z,11.70
2023-02-19T14:23:30.107Z,11.88
2023-02-19T14:25:44.879Z,10.35
2023-02-19T14:27:46.593Z,7.70
2023-02-19T14:29:48.690Z,9.80
2023-02-19T14:31:50.353Z,6.63
2023-02-19T14:33:54.582Z,6.47
2023-02-19T14:36:00.089Z,8.85
2023-02-19T14:38:02.362Z,10.40
2023-02-19T14:40:04.669Z,11.85
2023-02-19T14:42:12.673Z,8.27
2023-02-19T14:44:26.392Z,9.57
2023-02-19T14:46:35.124Z,7.78
2023-02-19T14:48:41.736Z,11.75
2023-02-19T14:50:47.023Z,6.57
2023-02-19T14:52:50.255Z,11.13
2023-02-19T14:54:58.294Z,6.40
2023-02-19T14:57:00.823Z,6.50
2023-02-19T14:59:11.272Z,6.97
2023-02-19T15:01:27.059Z,7.47
2023-02-19T15:03:35.578Z,11.13
2023-02-19T15:05:37.670Z,7.40
2023-02-19T15:07:41.592Z,12.27
2023-02-19T15:09:47.053Z,9.70
2023-02-19T15:11:48.930Z,9.15
2023-02-19T15:13:52.533Z,11.10
2023-02-19T15:15:55.362Z,9.05
2023-02-19T15:17:57.833Z,11.00
2023-02-19T15:20:03.537Z,8.82
2023-02-19T15:22:05.335Z,12.43
2023-02-19T15:24:07.486Z,9.18
2023-02-19T15:26:22.239Z,13.20
2023-02-19T15:28:23.768Z,12.02
2023-02-19T15:30:29.575Z,8.65
2023-02-19T15:32:32.661Z,14.63
2023-02-19T15:34:34.349Z,8.02
2023-02-19T15:36:36.066Z,8.88
2023-02-19T15:38:37.707Z,10.68
2023-02-19T15:40:39.563Z,8.80
2023-02-19T15:42:44.413Z,6.93
2023-02-19T15:44:49.063Z,7.60
2023-02-19T15:46:50.947Z,8.30
2023-02-19T15:49:11.458Z,9.75
2023-02-19T15:51:18.793Z,11.32
2023-02-19T15:53:23.750Z,11.05
2023-02-19T15:55:39.474Z,11.35
2023-02-19T15:57:45.382Z,12.57
2023-02-19T16:00:01.268Z,16.48
2023-02-19T16:02:04.369Z,15.60
2023-02-19T16:04:14.746Z,15.65
2023-02-19T16:06:17.920Z,15.18
2023-02-19T16:08:21.035Z,19.15
2023-02-19T16:10:24.125Z,14.93
2023-02-19T16:12:27.364Z,8.77
2023-02-19T16:14:30.246Z,7.88
2023-02-19T16:16:36.457Z,8.43
2023-02-19T16:18:38.194Z,10.30
2023-02-19T16:20:39.798Z,7.55
2023-02-19T16:22:42.832Z,14.68
2023-02-19T16:24:46.839Z,9.52
2023-02-19T16:26:48.492Z,10.48
2023-02-19T16:28:52.098Z,7.97
2023-02-19T16:31:08.508Z,8.63
2023-02-19T16:33:35.758Z,8.82
2023-02-19T16:35:40.260Z,11.32
2023-02-19T16:37:57.828Z,10.30
2023-02-19T16:40:08.405Z,13.23
2023-02-19T16:42:14.510Z,11.55
2023-02-19T16:44:36.338Z,15.63
2023-02-19T16:46:40.874Z,17.80
2023-02-19T16:48:42.521Z,19.48
2023-02-19T16:50:46.316Z,16.75
2023-02-19T16:54:56.290Z,17.52
2023-02-19T16:56:57.896Z,14.63
2023-02-19T16:58:59.438Z,14.98
2023-02-19T17:01:01.811Z,16.77
2023-02-19T17:03:09.199Z,19.90
2023-02-19T17:05:10.917Z,19.33
2023-02-19T17:07:14.817Z,22.35
2023-02-19T17:09:16.454Z,20.95
2023-02-19T17:11:18.461Z,21.48
2023-02-19T17:13:20.040Z,14.80
2023-02-19T17:15:22.282Z,10.60
2023-02-19T17:17:23.902Z,18.92
2023-02-19T17:19:25.460Z,10.25
2023-02-19T17:21:28.867Z,14.55
2023-02-19T17:23:30.497Z,16.83
2023-02-19T17:25:32.171Z,22.73
2023-02-19T17:27:33.826Z,17.25
2023-02-19T17:29:37.180Z,18.75
2023-02-19T17:31:38.862Z,23.73
2023-02-19T17:33:41.194Z,14.75
2023-02-19T17:35:44.855Z,13.48
2023-02-19T17:37:46.527Z,17.75
2023-02-19T17:39:49.244Z,17.52
2023-02-19T17:41:51.184Z,23.17
2023-02-19T17:43:53.332Z,20.58
2023-02-19T17:45:54.943Z,23.23
2023-02-19T17:47:56.549Z,20.10
2023-02-19T17:49:58.106Z,13.75
2023-02-19T17:51:59.668Z,14.93
2023-02-19T17:54:01.606Z,17.92
2023-02-19T17:56:03.555Z,15.52
2023-02-19T17:58:05.086Z,18.10
2023-02-19T18:00:07.797Z,16.85
2023-02-19T18:02:09.332Z,14.60
2023-02-19T18:04:10.958Z,17.23
2023-02-19T18:06:12.935Z,15.23
2023-02-19T18:08:14.955Z,18.13
2023-02-19T18:10:18.564Z,25.60
2023-02-19T18:12:20.148Z,46.85
2023-02-19T18:14:21.768Z,76.60
2023-02-19T18:16:23.464Z,23.48
2023-02-19T18:18:25.088Z,21.05
2023-02-19T18:20:28.621Z,16.20
2023-02-19T18:22:31.033Z,16.25
2023-02-19T18:24:32.737Z,10.88
2023-02-19T18:26:34.370Z,10.55
2023-02-19T18:28:36.498Z,12.75
2023-02-19T18:30:38.205Z,11.15
2023-02-19T18:32:39.841Z,7.53
2023-02-19T18:34:41.416Z,11.55
2023-02-19T18:36:46.978Z,9.80
2023-02-19T18:38:48.604Z,8.95
2023-02-19T18:40:50.174Z,9.68
2023-02-19T18:42:52.198Z,9.00
2023-02-19T18:44:54.351Z,8.60
2023-02-19T18:46:56.051Z,6.78
2023-02-19T18:48:58.010Z,11.25
2023-02-19T18:50:59.608Z,11.45
2023-02-19T18:53:01.333Z,8.00
2023-02-19T18:55:03.147Z,12.93
2023-02-19T18:57:04.793Z,9.95
2023-02-19T18:59:06.439Z,9.20
2023-02-19T19:01:08.093Z,11.30
2023-02-19T19:03:09.814Z,9.50
2023-02-19T19:05:13.325Z,9.80
2023-02-19T19:07:15.095Z,9.52
2023-02-19T19:09:16.687Z,9.32
2023-02-19T19:11:18.421Z,9.40
2023-02-19T19:13:20.040Z,9.13
2023-02-19T19:15:22.256Z,12.18
2023-02-19T19:17:23.822Z,15.05
2023-02-19T19:19:25.383Z,10.90
2023-02-19T19:21:27.269Z,10.25
2023-02-19T19:23:29.057Z,8.23
2023-02-19T19:25:30.692Z,12.13
2023-02-19T19:27:32.338Z,12.40
2023-02-19T19:29:33.904Z,15.98
2023-02-19T19:31:36.499Z,19.45
2023-02-19T19:33:38.450Z,17.85
2023-02-19T19:35:40.020Z,16.23
2023-02-19T19:37:41.615Z,19.08
2023-02-19T19:39:44.103Z,15.38
2023-02-19T19:41:45.679Z,9.20
2023-02-19T19:43:47.268Z,11.98
2023-02-19T19:45:50.040Z,10.88
2023-02-19T19:47:52.937Z,9.55
2023-02-19T19:49:54.501Z,11.03
2023-02-19T19:52:01.067Z,9.07
2023-02-19T19:54:04.186Z,8.35
2023-02-19T19:56:06.441Z,9.50
2023-02-19T19:58:08.302Z,8.57
2023-02-19T20:00:13.818Z,9.68
2023-02-19T20:02:15.381Z,7.80
2023-02-19T20:04:18.271Z,8.50
2023-02-19T20:06:31.000Z,8.83
2023-02-19T20:08:32.628Z,9.38
2023-02-19T20:10:34.287Z,10.35
2023-02-19T20:12:36.217Z,9.55
2023-02-19T20:14:37.878Z,10.13
2023-02-19T20:16:39.465Z,8.45
2023-02-19T20:18:41.590Z,8.38
2023-02-19T20:20:43.197Z,9.25
2023-02-19T20:22:44.877Z,11.60
2023-02-19T20:24:51.286Z,11.50
2023-02-19T20:27:01.932Z,9.05
2023-02-19T20:29:06.083Z,9.68
2023-02-19T20:31:08.452Z,10.73
2023-02-19T20:33:10.137Z,9.35
2023-02-19T20:35:11.925Z,10.05
2023-02-19T20:37:14.186Z,11.82
2023-02-19T20:39:17.109Z,11.70
2023-02-19T20:41:18.726Z,9.90
2023-02-19T20:43:20.356Z,8.10
2023-02-19T20:45:22.105Z,9.63
2023-02-19T20:47:23.747Z,13.50
2023-02-19T20:49:27.980Z,13.35
2023-02-19T20:51:29.517Z,10.00
2023-02-19T20:53:32.039Z,14.68
2023-02-19T20:55:33.707Z,10.45
2023-02-19T20:57:35.320Z,10.48
2023-02-19T20:59:38.683Z,12.02
2023-02-19T21:01:40.562Z,9.70
2023-02-19T21:03:42.210Z,10.02
2023-02-19T21:05:44.019Z,11.55
2023-02-19T21:07:46.290Z,13.80
2023-02-19T21:09:47.858Z,13.68
2023-02-19T21:11:50.004Z,13.02
2023-02-19T21:13:51.598Z,12.98
2023-02-19T21:15:53.402Z,11.90
2023-02-19T21:17:55.026Z,13.60
2023-02-19T21:19:56.606Z,12.75
2023-02-19T21:21:58.329Z,10.77
2023-02-19T21:24:00.435Z,13.32
2023-02-19T21:26:02.960Z,12.30
2023-02-19T21:28:05.742Z,11.75
2023-02-19T21:30:07.905Z,13.13
2023-02-19T21:32:09.724Z,12.18
2023-02-19T21:34:13.317Z,12.13
2023-02-19T21:36:15.152Z,10.20
2023-02-19T21:38:16.732Z,15.18
2023-02-19T21:40:18.432Z,13.35
2023-02-19T21:42:20.011Z,13.20
2023-02-19T21:44:21.805Z,10.98
2023-02-19T21:46:24.315Z,11.00
2023-02-19T21:48:25.931Z,10.10
2023-02-19T21:50:27.550Z,12.65
2023-02-19T21:52:31.088Z,14.88
2023-02-19T21:54:32.735Z,13.50
2023-02-19T21:56:36.460Z,13.45
2023-02-19T21:58:38.298Z,11.13
2023-02-19T22:00:39.937Z,13.43
2023-02-19T22:02:42.153Z,10.20
2023-02-19T22:04:43.764Z,12.40
2023-02-19T22:06:45.363Z,12.38
2023-02-19T22:08:46.963Z,10.75
2023-02-19T22:10:48.496Z,15.88
2023-02-19T22:12:50.124Z,11.32
2023-02-19T22:14:52.840Z,10.23
2023-02-19T22:16:54.455Z,13.98
2023-02-19T22:18:58.315Z,12.40
2023-02-19T22:23:01.751Z,10.25
2023-02-19T22:25:03.442Z,10.90
2023-02-19T22:27:05.192Z,11.43
2023-02-19T22:29:08.348Z,9.93
2023-02-19T22:31:10.092Z,11.13
2023-02-19T22:33:11.765Z,13.98
2023-02-19T22:35:15.437Z,11.18
2023-02-19T22:37:17.427Z,12.13
2023-02-19T22:39:27.769Z,11.18
2023-02-19T22:41:29.481Z,9.30
2023-02-19T22:43:31.093Z,11.27
2023-02-19T22:45:32.712Z,12.05
2023-02-19T22:47:34.312Z,12.52
2023-02-19T22:49:38.503Z,12.48
2023-02-19T22:51:40.131Z,11.35
2023-02-19T22:53:53.186Z,9.93
2023-02-19T22:55:54.867Z,12.45
2023-02-19T22:57:56.547Z,11.40
2023-02-19T22:59:58.114Z,11.77
2023-02-19T23:01:59.684Z,11.98
2023-02-19T23:04:01.436Z,12.43
2023-02-19T23:06:04.546Z,10.07
2023-02-19T23:08:06.258Z,13.00
2023-02-19T23:10:08.245Z,13.38
2023-02-19T23:12:11.256Z,11.23
2023-02-19T23:14:13.812Z,11.13
2023-02-19T23:16:15.866Z,12.10
2023-02-19T23:18:17.630Z,11.55
2023-02-19T23:20:19.320Z,12.82
2023-02-19T23:22:21.001Z,14.27
2023-02-19T23:24:22.580Z,10.55
2023-02-19T23:26:24.237Z,12.15
2023-02-19T23:28:25.913Z,12.48
2023-02-19T23:30:27.537Z,12.30
2023-02-19T23:32:29.188Z,14.98
2023-02-19T23:34:30.849Z,13.07
2023-02-19T23:36:32.417Z,11.27
2023-02-19T23:38:34.104Z,11.23
2023-02-19T23:40:35.996Z,16.38
2023-02-19T23:42:37.705Z,11.93
2023-02-19T23:44:39.263Z,13.27
2023-02-19T23:46:40.852Z,13.00
2023-02-19T23:48:42.585Z,12.35
2023-02-19T23:50:44.159Z,12.95
2023-02-19T23:52:45.758Z,13.35
2023-02-19T23:54:47.416Z,12.40
2023-02-19T23:56:48.995Z,20.05
2023-02-19T23:58:50.814Z,11.82
